createdAt,value
2023-03-17T00:01:41.893Z,98366.50
2023-03-17T00:06:44.294Z,98387.28
2023-03-17T00:11:47.413Z,98310.94
2023-03-17T00:16:52.041Z,98323.59
2023-03-17T00:21:55.111Z,98344.66
2023-03-17T00:26:57.312Z,98444.09
2023-03-17T00:31:59.961Z,98462.13
2023-03-17T00:37:02.103Z,98460.47
2023-03-17T00:42:04.529Z,98397.91
2023-03-17T00:47:08.697Z,98334.84
2023-03-17T00:52:10.967Z,98349.44
2023-03-17T00:57:13.245Z,98399.31
2023-03-17T01:02:15.761Z,98393.41
2023-03-17T01:07:18.274Z,98351.38
2023-03-17T01:12:22.470Z,98304.25
2023-03-17T01:17:24.708Z,98414.78
2023-03-17T01:22:27.123Z,98338.78
2023-03-17T01:27:33.729Z,98427.00
2023-03-17T01:32:36.034Z,98354.00
2023-03-17T01:37:38.750Z,98334.94
2023-03-17T01:42:44.829Z,98352.41
2023-03-17T01:47:47.576Z,98351.81
2023-03-17T01:52:49.714Z,98415.84
2023-03-17T01:57:56.467Z,98385.97
2023-03-17T02:02:59.191Z,98330.59
2023-03-17T02:08:01.679Z,98418.31
2023-03-17T02:13:05.908Z,98410.28
2023-03-17T02:18:11.716Z,98262.06
2023-03-17T02:23:22.549Z,98319.91
2023-03-17T02:28:30.982Z,98315.16
2023-03-17T02:33:33.462Z,98350.25
2023-03-17T02:38:36.313Z,98341.63
2023-03-17T02:43:38.607Z,98343.09
2023-03-17T02:48:41.387Z,98345.41
2023-03-17T02:53:43.731Z,98299.69
2023-03-17T02:58:46.527Z,98342.41
2023-03-17T03:03:48.908Z,98246.25
2023-03-17T03:08:52.081Z,98328.00
2023-03-17T03:13:54.386Z,98263.81
2023-03-17T03:18:56.830Z,98326.41
2023-03-17T03:23:59.087Z,98331.06
2023-03-17T03:29:01.393Z,98220.16
2023-03-17T03:34:04.225Z,98304.97
2023-03-17T03:39:06.576Z,98335.41
2023-03-17T03:44:08.995Z,98378.38
2023-03-17T03:49:11.402Z,98350.34
2023-03-17T03:54:13.630Z,98375.13
2023-03-17T03:59:16.283Z,98198.69
2023-03-17T04:04:18.618Z,98218.47
2023-03-17T04:14:44.732Z,98221.25
2023-03-17T04:19:47.174Z,98331.75
2023-03-17T04:24:49.458Z,98198.31
2023-03-17T04:29:51.683Z,98270.31
2023-03-17T04:34:54.114Z,98327.72
2023-03-17T04:39:56.424Z,98358.81
2023-03-17T04:44:58.646Z,98247.13
2023-03-17T04:50:01.362Z,98337.47
2023-03-17T04:55:10.400Z,98292.56
2023-03-17T05:00:13.324Z,98232.91
2023-03-17T05:05:15.686Z,98251.50
2023-03-17T05:10:18.049Z,98236.34
2023-03-17T05:15:20.337Z,98351.78
2023-03-17T05:20:22.547Z,98324.63
2023-03-17T05:25:24.777Z,98283.69
2023-03-17T05:30:27.216Z,98323.50
2023-03-17T05:35:29.662Z,98373.63
2023-03-17T05:40:32.708Z,98245.34
2023-03-17T05:45:35.037Z,98201.75
2023-03-17T05:50:37.344Z,98257.22
2023-03-17T05:55:39.730Z,98345.22
2023-03-17T06:00:42.711Z,98332.78
2023-03-17T06:05:44.994Z,98439.50
2023-03-17T06:10:48.187Z,98356.97
2023-03-17T06:15:54.221Z,98446.03
2023-03-17T06:20:56.712Z,98567.94
2023-03-17T06:25:58.850Z,98437.75
2023-03-17T06:31:01.395Z,98329.31
2023-03-17T06:36:03.858Z,98374.25
2023-03-17T06:41:06.299Z,98496.09
2023-03-17T06:46:09.089Z,98469.78
2023-03-17T06:51:11.633Z,98523.34
2023-03-17T06:56:28.899Z,98501.38
2023-03-17T07:01:32.301Z,98453.25
2023-03-17T07:06:35.807Z,98492.13
2023-03-17T07:11:38.225Z,98572.75
2023-03-17T07:16:40.567Z,98594.88
2023-03-17T07:21:42.864Z,98592.34
2023-03-17T07:26:44.988Z,98654.16
2023-03-17T07:31:47.407Z,98557.41
2023-03-17T07:36:49.777Z,98593.06
2023-03-17T07:41:55.147Z,98487.16
2023-03-17T07:46:57.523Z,98554.81
2023-03-17T07:51:59.903Z,98543.28
2023-03-17T07:57:02.108Z,98536.91
2023-03-17T08:02:04.740Z,98615.47
2023-03-17T08:07:06.976Z,98608.56
2023-03-17T08:12:10.059Z,98575.81
2023-03-17T08:17:12.342Z,98601.81
2023-03-17T08:22:14.583Z,98664.16
2023-03-17T08:27:18.843Z,98665.88
2023-03-17T08:32:20.945Z,98659.09
2023-03-17T08:37:24.658Z,98642.22
2023-03-17T08:42:26.935Z,98625.81
2023-03-17T08:47:29.765Z,98687.00
2023-03-17T08:52:32.650Z,98604.66
2023-03-17T08:57:35.895Z,98632.81
2023-03-17T09:02:39.202Z,98645.41
2023-03-17T09:07:42.641Z,98643.91
2023-03-17T09:12:44.910Z,98663.63
2023-03-17T09:17:47.171Z,98665.19
2023-03-17T09:22:49.580Z,98710.75
2023-03-17T09:27:52.044Z,98723.34
2023-03-17T09:32:54.914Z,98741.41
2023-03-17T09:37:57.599Z,98640.72
2023-03-17T09:43:38.715Z,98602.00
2023-03-17T09:49:07.622Z,98682.13
2023-03-17T09:54:33.717Z,98742.13
2023-03-17T09:59:44.789Z,98710.41
2023-03-17T10:04:48.832Z,98686.72
2023-03-17T10:10:03.491Z,98665.88
2023-03-17T10:15:30.560Z,98708.44
2023-03-17T10:20:36.487Z,98648.75
2023-03-17T10:25:39.589Z,98594.25
2023-03-17T10:30:41.742Z,98660.34
2023-03-17T10:35:45.102Z,98617.44
2023-03-17T10:40:58.074Z,98633.31
2023-03-17T10:46:04.092Z,98705.34
2023-03-17T10:51:09.949Z,98635.19
2023-03-17T10:56:26.816Z,98710.13
2023-03-17T11:01:35.855Z,98598.78
2023-03-17T11:06:43.904Z,98639.56
2023-03-17T11:12:06.494Z,98577.94
2023-03-17T11:17:21.398Z,98649.28
2023-03-17T11:22:38.254Z,98607.78
2023-03-17T11:28:19.214Z,98690.78
2023-03-17T11:33:36.531Z,98679.91
2023-03-17T11:39:23.243Z,98641.16
2023-03-17T11:44:59.843Z,98634.34
2023-03-17T11:50:49.556Z,98652.94
2023-03-17T11:56:05.430Z,98615.75
2023-03-17T12:01:12.990Z,98577.28
2023-03-17T12:06:36.745Z,98637.41
2023-03-17T12:11:44.567Z,98621.56
2023-03-17T12:17:02.520Z,98553.31
2023-03-17T12:22:13.606Z,98592.63
2023-03-17T12:27:30.248Z,98540.50
2023-03-17T12:32:45.862Z,98548.41
2023-03-17T12:37:49.720Z,98606.59
2023-03-17T12:43:39.057Z,98658.34
2023-03-17T12:49:11.013Z,98561.81
2023-03-17T12:54:21.496Z,98580.03
2023-03-17T12:59:26.348Z,98526.09
2023-03-17T13:04:36.202Z,98627.69
2023-03-17T13:09:49.711Z,98558.06
2023-03-17T13:14:52.334Z,98530.13
2023-03-17T13:20:10.472Z,98555.34
2023-03-17T13:25:34.929Z,98552.25
2023-03-17T13:30:37.098Z,98605.31
2023-03-17T13:36:05.939Z,98528.09
2023-03-17T13:41:50.310Z,98500.63
2023-03-17T13:46:52.887Z,98472.00
2023-03-17T13:52:17.688Z,98502.97
2023-03-17T13:57:39.962Z,98443.16
2023-03-17T14:02:44.659Z,98473.34
2023-03-17T14:08:01.126Z,98424.22
2023-03-17T14:13:24.783Z,98442.81
2023-03-17T14:18:37.780Z,98447.88
2023-03-17T14:23:39.975Z,98476.06
2023-03-17T14:28:42.120Z,98460.81
2023-03-17T14:33:44.418Z,98443.03
2023-03-17T14:38:53.421Z,98391.81
2023-03-17T14:44:01.000Z,98421.59
2023-03-17T14:49:13.395Z,98405.53
2023-03-17T14:54:31.420Z,98422.03
2023-03-17T14:59:36.197Z,98422.94
2023-03-17T15:04:53.547Z,98416.03
2023-03-17T15:10:02.169Z,98339.75
2023-03-17T15:15:16.961Z,98401.94
2023-03-17T15:20:20.230Z,98400.72
2023-03-17T15:25:39.740Z,98376.03
2023-03-17T15:30:48.224Z,98366.97
2023-03-17T15:35:51.591Z,98342.16
2023-03-17T15:40:54.717Z,98359.47
2023-03-17T15:46:07.669Z,98415.41
2023-03-17T15:51:11.715Z,98368.34
2023-03-17T15:56:20.318Z,98360.44
2023-03-17T16:01:22.708Z,98345.56
2023-03-17T16:06:25.044Z,98351.31
2023-03-17T16:11:31.444Z,98376.88
2023-03-17T16:16:42.369Z,98425.09
2023-03-17T16:21:44.532Z,98399.91
2023-03-17T16:26:46.659Z,98356.94
2023-03-17T16:31:56.891Z,98322.78
2023-03-17T16:36:59.107Z,98343.16
2023-03-17T16:42:01.822Z,98353.22
2023-03-17T16:47:04.223Z,98375.63
2023-03-17T16:52:06.505Z,98380.53
2023-03-17T16:57:12.982Z,98286.88
2023-03-17T17:02:16.877Z,98325.31
2023-03-17T17:07:18.975Z,98398.41
2023-03-17T17:12:21.169Z,98365.03
2023-03-17T17:17:23.357Z,98354.06
2023-03-17T17:22:25.526Z,98385.22
2023-03-17T17:27:27.646Z,98375.50
2023-03-17T17:32:29.995Z,98392.03
2023-03-17T17:37:32.449Z,98392.41
2023-03-17T17:42:35.866Z,98386.38
2023-03-17T17:47:38.179Z,98338.50
2023-03-17T17:52:40.387Z,98331.00
2023-03-17T17:57:42.552Z,98390.72
2023-03-17T18:02:45.500Z,98409.00
2023-03-17T18:07:47.632Z,98429.56
2023-03-17T18:12:49.774Z,98315.41
2023-03-17T18:17:52.241Z,98288.78
2023-03-17T18:22:54.561Z,98338.94
2023-03-17T18:27:57.416Z,98386.84
2023-03-17T18:33:09.675Z,98364.97
2023-03-17T18:38:11.992Z,98401.50
2023-03-17T18:43:14.186Z,98348.72
2023-03-17T18:48:16.562Z,98311.72
2023-03-17T18:53:18.789Z,98305.63
2023-03-17T18:58:20.925Z,98271.47
2023-03-17T19:03:23.452Z,98410.81
2023-03-17T19:08:25.810Z,98401.06
2023-03-17T19:13:27.896Z,98318.88
2023-03-17T19:18:30.250Z,98347.88
2023-03-17T19:23:33.541Z,98337.63
2023-03-17T19:28:35.742Z,98393.63
2023-03-17T19:33:38.048Z,98398.50
2023-03-17T19:38:41.230Z,98349.66
2023-03-17T19:43:43.533Z,98371.53
2023-03-17T19:48:45.615Z,98383.28
2023-03-17T19:53:47.729Z,98377.19
2023-03-17T19:58:51.152Z,98345.88
2023-03-17T20:03:53.277Z,98354.16
2023-03-17T20:08:55.449Z,98364.88
2023-03-17T20:13:57.573Z,98343.84
2023-03-17T20:19:01.319Z,98365.22
2023-03-17T20:24:03.936Z,98409.16
2023-03-17T20:29:06.570Z,98394.38
2023-03-17T20:34:10.128Z,98378.75
2023-03-17T20:39:14.929Z,98438.53
2023-03-17T20:44:18.117Z,98418.44
2023-03-17T20:49:21.006Z,98461.00
2023-03-17T20:54:25.802Z,98448.53
2023-03-17T20:59:28.203Z,98420.34
2023-03-17T21:04:30.596Z,98410.13
2023-03-17T21:09:32.885Z,98486.91
2023-03-17T21:14:35.115Z,98462.69
2023-03-17T21:19:38.213Z,98454.59
2023-03-17T21:24:40.602Z,98444.63
2023-03-17T21:29:42.844Z,98425.38
2023-03-17T21:34:45.487Z,98429.31
2023-03-17T21:39:47.778Z,98478.41
2023-03-17T21:44:52.007Z,98445.88
2023-03-17T21:49:54.430Z,98486.31
2023-03-17T21:54:57.332Z,98475.97
2023-03-17T21:59:59.576Z,98459.16
2023-03-17T22:05:02.731Z,98375.00
2023-03-17T22:10:07.388Z,98415.47
2023-03-17T22:15:10.436Z,98408.72
2023-03-17T22:20:12.628Z,98486.59
2023-03-17T22:25:14.819Z,98486.53
2023-03-17T22:30:17.340Z,98488.50
2023-03-17T22:35:21.017Z,98500.19
2023-03-17T22:40:23.390Z,98502.00
2023-03-17T22:45:26.542Z,98499.03
2023-03-17T22:50:28.965Z,98508.69
2023-03-17T22:55:31.416Z,98465.19
2023-03-17T23:00:33.808Z,98495.25
2023-03-17T23:05:36.036Z,98467.78
2023-03-17T23:10:40.081Z,98463.19
2023-03-17T23:15:42.522Z,98472.19
2023-03-17T23:20:45.907Z,98425.03
2023-03-17T23:25:48.214Z,98479.31
2023-03-17T23:30:51.227Z,98449.13
2023-03-17T23:35:53.784Z,98478.13
2023-03-17T23:40:57.860Z,98476.13
2023-03-17T23:46:01.057Z,98482.16
2023-03-17T23:51:03.484Z,98544.97
2023-03-17T23:56:07.830Z,98571.75
